Terminal Aerodrome Forecast
Issued by NWS Denver/Boulder, CO

Home | Current Version | Previous Version | Text Only | Print | Product List | Glossary On
Versions: 1 2 3 4 5 6 7 8 9 10 11 12 13 14 15 16 17 18 19 20 21 22 23 24 25 26 27 28 29 30 31 32 33 34 35 36 37 38 39 40 41 42 43 44 45
000
FTUS45 KBOU 232341
TAFDEN
TAF
KDEN 232341Z 2400/2506 01014G24KT 5SM -SN BR SCT008 BKN012 OVC020
      TEMPO 2400/2402 2SM -SN BR BKN008
     FM240300 36010KT P6SM SCT005 BKN014 OVC025
      TEMPO 2403/2406 4SM -SHSN BKN008
     FM240800 34010KT P6SM VCSH SCT005 BKN012
     FM241500 01010KT P6SM VCSH SCT007 BKN018
     FM242200 06008KT P6SM SCT012 BKN040
     FM250300 17010KT P6SM SCT025 BKN070=

USA.gov is the U.S. government's official web portal to all federal, state and local government web resources and services.